Time;durP1;ratioP1;P1;durP2;ratioP2;P2;SDS_P1;SDS_P2;PMS_P1;PMS_P2;Temp;Humidity;BMP_temperature;BMP_pressure;BME280_temperature;BME280_humidity;BME280_pressure;Samples;Min_cycle;Max_cycle;Signal;HPM_P1;HPM_P2
2021/10/26 00:02:20;;;;;;;17.35;11.65;;;8.90;97.40;;;;;;5093007;28;20036;-64
2021/10/26 00:04:45;;;;;;;18.33;11.95;;;8.90;97.40;;;;;;5094552;28;20023;-64
2021/10/26 00:07:11;;;;;;;20.67;11.48;;;9.00;97.50;;;;;;5092603;28;20088;-64
2021/10/26 00:09:36;;;;;;;16.05;10.77;;;9.00;97.50;;;;;;5094671;28;20046;-64
2021/10/26 00:12:03;;;;;;;16.52;10.60;;;9.00;97.50;;;;;;5091581;28;20035;-65
2021/10/26 00:14:29;;;;;;;15.38;10.45;;;9.00;97.50;;;;;;5077437;28;20441;-64
2021/10/26 00:16:55;;;;;;;15.95;11.52;;;9.00;97.40;;;;;;5079824;28;20063;-64
2021/10/26 00:19:21;;;;;;;15.98;10.75;;;9.00;97.40;;;;;;5094078;28;20038;-65
2021/10/26 00:21:47;;;;;;;18.15;10.70;;;9.00;97.40;;;;;;5092390;28;20032;-64
2021/10/26 00:24:13;;;;;;;18.25;10.95;;;8.90;97.40;;;;;;5102371;28;20024;-64
2021/10/26 00:26:38;;;;;;;16.65;10.50;;;8.90;97.40;;;;;;5106810;28;20020;-64
2021/10/26 00:29:04;;;;;;;15.77;10.82;;;8.90;97.50;;;;;;5094009;28;20024;-64
2021/10/26 00:31:29;;;;;;;20.08;11.15;;;8.90;97.50;;;;;;5092149;28;20078;-64
2021/10/26 00:33:55;;;;;;;15.05;10.85;;;8.90;97.50;;;;;;5093859;28;20020;-65
2021/10/26 00:36:21;;;;;;;28.38;11.02;;;8.90;97.50;;;;;;5090592;28;20111;-64
2021/10/26 00:38:47;;;;;;;15.52;10.70;;;8.90;97.50;;;;;;5072645;28;20447;-65
2021/10/26 00:41:14;;;;;;;17.73;11.13;;;8.90;97.50;;;;;;5074024;28;20024;-64
2021/10/26 00:43:40;;;;;;;16.77;11.75;;;8.90;97.60;;;;;;5073843;28;20538;-65
2021/10/26 00:46:06;;;;;;;20.17;11.52;;;8.90;97.60;;;;;;5075979;28;20039;-65
2021/10/26 00:48:32;;;;;;;17.27;11.80;;;8.90;97.70;;;;;;5093136;28;20016;-65
2021/10/26 00:50:57;;;;;;;17.98;11.95;;;8.90;97.70;;;;;;5093646;28;20061;-65
2021/10/26 00:53:23;;;;;;;17.05;11.35;;;8.90;97.70;;;;;;5092090;28;20044;-65
2021/10/26 00:55:49;;;;;;;15.30;10.70;;;9.00;97.80;;;;;;5093643;28;20032;-64
2021/10/26 00:58:15;;;;;;;17.92;10.77;;;9.00;97.80;;;;;;5073921;28;20040;-65
2021/10/26 01:00:42;;;;;;;17.08;10.48;;;9.00;97.80;;;;;;5073610;28;20024;-65
2021/10/26 01:03:08;;;;;;;13.95;10.05;;;9.00;97.80;;;;;;5073372;28;20037;-65
2021/10/26 01:05:33;;;;;;;17.70;10.38;;;9.10;97.80;;;;;;5073154;28;20031;-65
2021/10/26 01:07:59;;;;;;;18.20;9.80;;;9.10;97.80;;;;;;5072383;28;20078;-65
2021/10/26 01:10:24;;;;;;;15.98;10.50;;;9.10;97.80;;;;;;5073340;28;20064;-65
2021/10/26 01:12:51;;;;;;;14.25;9.95;;;9.20;97.80;;;;;;5081208;28;20032;-65
2021/10/26 01:15:16;;;;;;;14.93;10.48;;;9.20;97.80;;;;;;5113567;28;20105;-65
2021/10/26 01:17:42;;;;;;;19.63;9.50;;;9.20;97.80;;;;;;5096430;28;20056;-65
2021/10/26 01:20:09;;;;;;;16.23;10.85;;;9.20;97.70;;;;;;5093230;28;20039;-65
2021/10/26 01:22:39;;;;;;;17.45;10.57;;;9.20;97.70;;;;;;5079919;28;20535;-65
2021/10/26 01:25:10;;;;;;;14.13;9.90;;;9.20;97.70;;;;;;5104272;28;20045;-65
2021/10/26 01:27:44;;;;;;;15.55;9.75;;;9.30;97.70;;;;;;5075943;28;20024;-64
2021/10/26 01:30:11;;;;;;;16.73;10.98;;;9.30;97.70;;;;;;5088477;28;20434;-64
2021/10/26 01:32:37;;;;;;;17.23;9.82;;;9.30;97.60;;;;;;5075166;28;20040;-64
2021/10/26 01:35:03;;;;;;;14.63;10.02;;;9.30;97.60;;;;;;5072702;28;20524;-65
2021/10/26 01:37:31;;;;;;;14.50;9.38;;;9.30;97.60;;;;;;5085967;28;20122;-65
2021/10/26 01:39:58;;;;;;;13.90;9.10;;;9.40;97.60;;;;;;5092887;28;20472;-65
2021/10/26 01:42:24;;;;;;;13.23;9.13;;;9.40;97.60;;;;;;5090892;28;20056;-64
2021/10/26 01:44:50;;;;;;;15.10;9.48;;;9.40;97.60;;;;;;5092276;28;20070;-65
2021/10/26 01:47:15;;;;;;;15.00;9.38;;;9.50;97.60;;;;;;5089361;28;20480;-65
2021/10/26 01:49:41;;;;;;;14.20;9.75;;;9.40;97.50;;;;;;5084699;28;20032;-64
2021/10/26 01:52:06;;;;;;;14.48;9.77;;;9.50;97.50;;;;;;5072000;28;20025;-64
2021/10/26 01:54:37;;;;;;;13.35;9.95;;;9.40;97.40;;;;;;5071983;28;20496;-64
2021/10/26 01:57:07;;;;;;;15.70;9.05;;;9.40;97.40;;;;;;5072543;28;20028;-64
2021/10/26 01:59:34;;;;;;;14.60;9.57;;;9.50;97.40;;;;;;5071827;28;20028;-64
2021/10/26 02:02:00;;;;;;;15.07;9.45;;;9.50;97.40;;;;;;5072479;28;20596;-64
2021/10/26 02:04:26;;;;;;;15.32;8.95;;;9.50;97.30;;;;;;5072191;28;20052;-64
2021/10/26 02:06:52;;;;;;;15.48;8.85;;;9.50;97.30;;;;;;5076731;28;20090;-64
2021/10/26 02:09:17;;;;;;;15.50;9.60;;;9.50;97.20;;;;;;5092168;28;20016;-64
2021/10/26 02:11:43;;;;;;;15.05;9.07;;;9.50;97.20;;;;;;5083509;28;20396;-64
2021/10/26 02:14:08;;;;;;;12.70;9.23;;;9.50;97.20;;;;;;5071606;28;20027;-64
2021/10/26 02:16:34;;;;;;;15.27;9.35;;;9.40;97.10;;;;;;5077581;28;20050;-64
2021/10/26 02:18:59;;;;;;;13.05;8.90;;;9.40;97.10;;;;;;5091825;28;20032;-64
2021/10/26 02:21:25;;;;;;;15.77;9.93;;;9.40;97.10;;;;;;5085430;28;20552;-64
2021/10/26 02:23:51;;;;;;;11.43;8.65;;;9.40;97.10;;;;;;5077152;28;20078;-64
2021/10/26 02:26:16;;;;;;;14.10;9.25;;;9.40;97.00;;;;;;5074912;28;20479;-64
2021/10/26 02:28:43;;;;;;;18.52;9.48;;;9.40;97.10;;;;;;5091739;28;20103;-64
2021/10/26 02:31:09;;;;;;;13.40;9.00;;;9.40;97.10;;;;;;5087849;28;20154;-64
2021/10/26 02:33:34;;;;;;;14.60;9.38;;;9.30;97.10;;;;;;5071861;28;20504;-64
2021/10/26 02:36:00;;;;;;;17.77;9.55;;;9.40;97.10;;;;;;5072446;28;20124;-64
2021/10/26 02:38:25;;;;;;;14.07;8.65;;;9.40;97.10;;;;;;5091971;28;20028;-64
2021/10/26 02:40:51;;;;;;;14.63;8.98;;;9.30;97.10;;;;;;5081083;28;20062;-64
2021/10/26 02:43:18;;;;;;;14.40;9.63;;;9.30;97.10;;;;;;5091556;28;20038;-64
2021/10/26 02:45:43;;;;;;;13.20;9.50;;;9.30;97.10;;;;;;5087204;28;20369;-64
2021/10/26 02:48:09;;;;;;;15.43;9.18;;;9.30;97.10;;;;;;5086599;28;20031;-64
2021/10/26 02:50:34;;;;;;;14.27;9.88;;;9.30;97.10;;;;;;5071769;28;20024;-64
2021/10/26 02:53:00;;;;;;;13.77;8.90;;;9.30;97.10;;;;;;5071381;28;20051;-64
2021/10/26 02:55:25;;;;;;;16.30;10.18;;;9.20;97.10;;;;;;5072051;28;20033;-64
2021/10/26 02:57:51;;;;;;;12.38;8.68;;;9.30;97.10;;;;;;5087650;28;20476;-64
2021/10/26 03:00:17;;;;;;;15.95;9.38;;;9.20;97.10;;;;;;5091795;28;20032;-64
2021/10/26 03:02:42;;;;;;;14.15;9.45;;;9.20;97.20;;;;;;5074164;28;20032;-64
2021/10/26 03:05:08;;;;;;;14.23;9.73;;;9.10;97.20;;;;;;5071563;28;20070;-64
2021/10/26 03:07:45;;;;;;;15.07;9.52;;;9.10;97.20;;;;;;5085413;28;20062;-64
2021/10/26 03:10:11;;;;;;;14.80;9.73;;;9.10;97.20;;;;;;5091416;28;20081;-64
2021/10/26 03:12:38;;;;;;;12.60;8.70;;;9.10;97.10;;;;;;5089722;28;20090;-64
2021/10/26 03:15:05;;;;;;;15.55;9.50;;;9.10;97.20;;;;;;5070836;28;20100;-64
2021/10/26 03:17:31;;;;;;;13.60;9.73;;;9.10;97.20;;;;;;5070827;28;20584;-64
2021/10/26 03:19:57;;;;;;;15.82;10.20;;;9.10;97.20;;;;;;5071114;28;20146;-64
2021/10/26 03:22:22;;;;;;;14.60;9.25;;;9.10;97.20;;;;;;5083518;28;20028;-64
2021/10/26 03:24:48;;;;;;;13.38;9.30;;;9.10;97.20;;;;;;5071750;28;20029;-64
2021/10/26 03:27:13;;;;;;;13.18;8.73;;;9.10;97.30;;;;;;5070882;28;20032;-64
2021/10/26 03:29:40;;;;;;;14.48;9.65;;;9.00;97.20;;;;;;5071595;28;20021;-64
2021/10/26 03:32:05;;;;;;;13.90;9.55;;;9.00;97.30;;;;;;5071099;28;20033;-64
2021/10/26 03:34:31;;;;;;;17.67;9.88;;;9.00;97.30;;;;;;5071044;28;20028;-64
2021/10/26 03:36:57;;;;;;;13.35;9.07;;;9.00;97.30;;;;;;5079473;28;20020;-64
2021/10/26 03:39:22;;;;;;;14.18;9.00;;;9.00;97.40;;;;;;5087827;28;20028;-64
2021/10/26 03:41:48;;;;;;;14.02;8.80;;;9.00;97.40;;;;;;5071406;28;20106;-64
2021/10/26 03:44:14;;;;;;;13.68;8.95;;;9.10;97.50;;;;;;5071188;28;20039;-64
2021/10/26 03:46:39;;;;;;;13.40;8.70;;;9.10;97.50;;;;;;5069948;28;20492;-64
2021/10/26 03:49:05;;;;;;;13.57;8.63;;;9.10;97.50;;;;;;5070987;28;20074;-64
2021/10/26 03:51:31;;;;;;;13.95;9.40;;;9.10;97.70;;;;;;5076150;28;20099;-64
2021/10/26 03:53:57;;;;;;;11.23;8.43;;;9.20;97.50;;;;;;5090673;28;20596;-64
2021/10/26 03:56:23;;;;;;;13.95;8.90;;;9.20;97.50;;;;;;5090747;28;20082;-64
2021/10/26 03:58:48;;;;;;;13.88;9.48;;;9.20;97.50;;;;;;5085035;28;20032;-64
2021/10/26 04:01:15;;;;;;;15.05;9.38;;;9.20;97.60;;;;;;5074519;28;20036;-64
2021/10/26 04:03:40;;;;;;;12.68;9.10;;;9.30;97.60;;;;;;5074469;28;20025;-64
2021/10/26 04:06:09;;;;;;;12.30;8.93;;;9.30;97.60;;;;;;5074634;28;20032;-64
2021/10/26 04:11:20;;;;;;;12.60;8.93;;;9.30;97.60;;;;;;5093089;28;20039;-64
2021/10/26 04:13:46;;;;;;;13.63;8.82;;;9.30;97.50;;;;;;5084100;28;20032;-64
2021/10/26 04:16:12;;;;;;;11.30;8.70;;;9.30;97.50;;;;;;5074196;28;20024;-64
2021/10/26 04:18:38;;;;;;;12.85;9.13;;;9.40;97.50;;;;;;5074331;28;20037;-64
2021/10/26 04:21:05;;;;;;;12.35;8.30;;;9.40;97.50;;;;;;5074347;28;20734;-64
2021/10/26 04:23:31;;;;;;;12.77;8.88;;;9.50;97.50;;;;;;5087390;28;20119;-64
2021/10/26 04:25:56;;;;;;;16.63;9.50;;;9.50;97.50;;;;;;5074225;28;20373;-64
2021/10/26 04:28:22;;;;;;;13.05;9.07;;;9.50;97.50;;;;;;5072758;28;20162;-64
2021/10/26 04:30:48;;;;;;;14.52;9.90;;;9.50;97.50;;;;;;5074183;28;20029;-64
2021/10/26 04:33:14;;;;;;;13.60;9.63;;;9.50;97.50;;;;;;5074119;28;20055;-64
2021/10/26 04:35:40;;;;;;;15.15;9.70;;;9.60;97.50;;;;;;5078918;28;20614;-64
2021/10/26 04:38:05;;;;;;;11.90;8.50;;;9.60;97.50;;;;;;5092763;28;20036;-65
2021/10/26 04:40:31;;;;;;;15.63;8.70;;;9.60;97.40;;;;;;5094071;28;20032;-64
2021/10/26 04:42:58;;;;;;;14.80;9.48;;;9.70;97.50;;;;;;5075112;28;20039;-65
2021/10/26 04:45:23;;;;;;;14.38;9.38;;;9.70;97.40;;;;;;5073637;28;20028;-65
2021/10/26 04:47:49;;;;;;;12.60;9.13;;;9.70;97.60;;;;;;5089977;28;20039;-65
2021/10/26 04:50:15;;;;;;;13.13;9.65;;;9.80;97.40;;;;;;5093406;28;20479;-66
2021/10/26 04:52:41;;;;;;;12.32;8.68;;;9.80;97.40;;;;;;5077112;28;20021;-64
2021/10/26 04:55:07;;;;;;;13.95;9.00;;;9.80;97.30;;;;;;5073422;28;20438;-63
2021/10/26 04:57:33;;;;;;;14.35;9.88;;;9.80;97.30;;;;;;5073434;28;20040;-66
2021/10/26 04:59:59;;;;;;;13.82;9.15;;;9.90;97.30;;;;;;5073046;28;20086;-64
2021/10/26 05:02:24;;;;;;;13.25;9.25;;;9.90;97.30;;;;;;5086235;28;20028;-64
2021/10/26 05:04:50;;;;;;;14.52;8.75;;;10.00;97.30;;;;;;5086153;28;20446;-63
2021/10/26 05:07:16;;;;;;;12.43;8.38;;;10.00;97.30;;;;;;5077264;28;20111;-63
2021/10/26 05:09:43;;;;;;;13.98;9.15;;;10.10;97.20;;;;;;5073533;28;20373;-63
2021/10/26 05:12:09;;;;;;;13.50;8.65;;;10.10;97.10;;;;;;5091742;28;20178;-63
2021/10/26 05:14:34;;;;;;;12.45;8.60;;;10.10;97.10;;;;;;5075736;28;20027;-64
2021/10/26 05:17:03;;;;;;;14.00;8.88;;;10.20;97.00;;;;;;5072968;28;20484;-63
2021/10/26 05:19:29;;;;;;;14.80;8.63;;;10.20;97.00;;;;;;5072489;28;20106;-64
2021/10/26 05:21:54;;;;;;;12.85;8.60;;;10.20;96.90;;;;;;5074516;28;20032;-63
2021/10/26 05:24:21;;;;;;;11.55;8.07;;;10.20;96.90;;;;;;5078698;28;20108;-65
2021/10/26 05:26:46;;;;;;;12.98;9.43;;;10.20;96.90;;;;;;5073071;28;20081;-63
2021/10/26 05:29:12;;;;;;;11.15;8.38;;;10.30;97.00;;;;;;5072704;28;20099;-63
2021/10/26 05:31:39;;;;;;;15.20;7.95;;;10.30;97.00;;;;;;5072322;28;20072;-64
2021/10/26 05:34:09;;;;;;;12.50;8.32;;;10.30;96.90;;;;;;5071985;28;20033;-63
2021/10/26 05:36:36;;;;;;;11.07;8.00;;;10.30;96.80;;;;;;5078732;28;20077;-64
2021/10/26 05:39:02;;;;;;;10.80;7.68;;;10.30;96.80;;;;;;5092602;28;20040;-63
2021/10/26 05:41:28;;;;;;;13.23;7.80;;;10.40;96.80;;;;;;5091505;28;20024;-64
2021/10/26 05:43:54;;;;;;;12.95;8.40;;;10.40;96.80;;;;;;5092749;28;20024;-63
2021/10/26 05:46:19;;;;;;;12.10;8.07;;;10.40;96.70;;;;;;5090785;28;20031;-63
2021/10/26 05:48:45;;;;;;;12.07;8.27;;;10.50;96.70;;;;;;5092753;28;20042;-64
2021/10/26 05:51:11;;;;;;;24.73;8.98;;;10.40;96.70;;;;;;5088742;28;20024;-63
2021/10/26 05:53:36;;;;;;;10.25;7.72;;;10.40;96.80;;;;;;5072189;28;20397;-64
2021/10/26 05:56:02;;;;;;;15.32;8.68;;;10.40;96.70;;;;;;5071821;28;20113;-64
2021/10/26 05:58:28;;;;;;;13.10;8.75;;;10.50;96.80;;;;;;5090076;28;20046;-64
2021/10/26 06:00:54;;;;;;;10.73;8.45;;;10.50;96.80;;;;;;5072008;28;20070;-65
2021/10/26 06:03:19;;;;;;;15.48;9.38;;;10.50;96.70;;;;;;5070980;28;20028;-64
2021/10/26 06:05:45;;;;;;;11.10;7.88;;;10.50;96.70;;;;;;5082509;28;20031;-64
2021/10/26 06:08:10;;;;;;;12.65;8.80;;;10.50;96.70;;;;;;5072833;28;20037;-64
2021/10/26 06:10:41;;;;;;;15.90;9.00;;;10.50;96.70;;;;;;5069830;28;20108;-64
2021/10/26 06:13:18;;;;;;;11.35;8.00;;;10.50;96.70;;;;;;5071329;28;20492;-64
2021/10/26 06:15:43;;;;;;;14.63;8.93;;;10.50;96.70;;;;;;5069956;28;20048;-64
2021/10/26 06:18:08;;;;;;;14.35;8.73;;;10.50;96.70;;;;;;5090767;28;20060;-64
2021/10/26 06:20:34;;;;;;;11.30;8.75;;;10.60;96.70;;;;;;5091986;28;20470;-64
2021/10/26 06:23:00;;;;;;;14.20;9.02;;;10.60;96.70;;;;;;5073818;28;20047;-64
2021/10/26 06:25:26;;;;;;;12.45;8.57;;;10.60;96.70;;;;;;5079587;28;20016;-63
2021/10/26 06:27:51;;;;;;;13.55;8.60;;;10.60;96.70;;;;;;5070458;28;20028;-63
2021/10/26 06:30:17;;;;;;;12.27;8.57;;;10.70;96.70;;;;;;5075475;28;20031;-63
2021/10/26 06:32:44;;;;;;;13.05;8.82;;;10.70;96.70;;;;;;5077843;28;20037;-63
2021/10/26 06:35:11;;;;;;;12.52;8.55;;;10.70;96.70;;;;;;5070460;28;20454;-64
2021/10/26 06:37:40;;;;;;;12.73;8.00;;;10.80;96.70;;;;;;5074419;28;20379;-64
2021/10/26 06:40:06;;;;;;;15.77;9.35;;;10.80;96.90;;;;;;5076874;28;20036;-64
2021/10/26 06:42:33;;;;;;;12.55;8.23;;;10.80;96.70;;;;;;5079140;28;20017;-64
2021/10/26 06:44:59;;;;;;;14.32;8.32;;;10.80;96.70;;;;;;5076195;28;20037;-64
2021/10/26 06:47:24;;;;;;;16.10;9.27;;;10.90;96.70;;;;;;5076348;28;20063;-64
2021/10/26 06:49:50;;;;;;;15.13;8.95;;;10.90;96.70;;;;;;5072208;28;20119;-64
2021/10/26 06:52:16;;;;;;;11.65;8.20;;;11.00;96.70;;;;;;5072186;28;20507;-63
2021/10/26 06:54:43;;;;;;;11.85;8.30;;;11.00;96.70;;;;;;5079030;28;20496;-64
2021/10/26 06:57:09;;;;;;;14.35;8.75;;;11.00;96.70;;;;;;5089623;28;20464;-64
2021/10/26 06:59:35;;;;;;;10.60;8.50;;;11.00;96.60;;;;;;5077269;28;20127;-64
2021/10/26 07:02:01;;;;;;;12.57;9.00;;;11.10;96.60;;;;;;5071505;28;20036;-64
2021/10/26 07:04:27;;;;;;;15.05;8.95;;;11.10;96.60;;;;;;5074212;28;20029;-64
2021/10/26 07:06:53;;;;;;;15.57;9.18;;;11.10;96.60;;;;;;5083137;28;20025;-64
2021/10/26 07:09:18;;;;;;;16.75;9.10;;;11.20;96.60;;;;;;5070070;28;20028;-64
2021/10/26 07:11:43;;;;;;;16.65;9.50;;;11.20;96.70;;;;;;5083749;28;20028;-65
2021/10/26 07:14:09;;;;;;;14.02;9.35;;;11.20;96.70;;;;;;5080028;28;20436;-64
2021/10/26 07:16:35;;;;;;;15.73;9.23;;;11.30;96.70;;;;;;5076769;28;20016;-64
2021/10/26 07:19:00;;;;;;;16.63;9.63;;;11.30;96.70;;;;;;5073928;28;20039;-64
2021/10/26 07:21:26;;;;;;;16.00;9.18;;;11.40;96.70;;;;;;5072015;28;20024;-64
2021/10/26 07:23:52;;;;;;;15.57;9.35;;;11.40;96.70;;;;;;5075233;28;20052;-64
2021/10/26 07:26:18;;;;;;;13.73;9.48;;;11.50;96.70;;;;;;5078013;28;20032;-64
2021/10/26 07:28:43;;;;;;;16.10;9.50;;;11.50;96.70;;;;;;5080353;28;20028;-64
2021/10/26 07:31:09;;;;;;;14.07;9.45;;;11.60;96.60;;;;;;5071635;28;20024;-64
2021/10/26 07:33:35;;;;;;;13.68;8.65;;;11.60;96.60;;;;;;5088474;28;20053;-64
2021/10/26 07:36:04;;;;;;;16.25;10.45;;;11.70;96.60;;;;;;5079518;28;20071;-64
2021/10/26 07:38:33;;;;;;;16.13;9.48;;;11.70;96.60;;;;;;5082415;28;20097;-64
2021/10/26 07:41:00;;;;;;;16.95;9.27;;;11.70;96.60;;;;;;5082311;28;20358;-65
2021/10/26 07:43:26;;;;;;;13.63;8.27;;;11.80;96.60;;;;;;5080539;28;20491;-64
2021/10/26 07:45:52;;;;;;;19.33;10.05;;;11.80;96.60;;;;;;5073997;28;20021;-64
2021/10/26 07:48:18;;;;;;;16.23;9.43;;;11.90;96.70;;;;;;5079952;28;20027;-64
2021/10/26 07:50:45;;;;;;;14.88;9.23;;;11.90;96.70;;;;;;5073726;28;20020;-64
2021/10/26 07:53:10;;;;;;;17.08;9.00;;;11.90;96.70;;;;;;5076311;28;20044;-64
2021/10/26 07:55:36;;;;;;;15.50;9.43;;;12.00;96.70;;;;;;5082291;28;20545;-64
2021/10/26 07:58:02;;;;;;;13.80;9.25;;;12.10;96.70;;;;;;5073306;28;20024;-64
2021/10/26 08:00:27;;;;;;;14.00;9.48;;;12.10;96.70;;;;;;5073315;28;20511;-64
2021/10/26 08:02:53;;;;;;;15.30;9.40;;;12.20;96.70;;;;;;5077335;28;20070;-64
2021/10/26 08:05:19;;;;;;;13.90;9.27;;;12.30;96.60;;;;;;5073226;28;20488;-64
2021/10/26 08:07:45;;;;;;;13.88;9.57;;;12.40;96.60;;;;;;5080517;28;20028;-64
2021/10/26 08:10:10;;;;;;;15.05;9.30;;;12.40;96.60;;;;;;5073156;28;20065;-64
2021/10/26 08:12:36;;;;;;;13.80;9.68;;;12.50;96.60;;;;;;5080440;28;20017;-64
2021/10/26 08:15:02;;;;;;;14.50;9.90;;;12.60;96.60;;;;;;5072423;28;20138;-64
2021/10/26 08:17:28;;;;;;;13.77;9.55;;;12.70;96.50;;;;;;5077128;28;20032;-64
2021/10/26 08:19:53;;;;;;;16.80;10.18;;;12.70;96.40;;;;;;5077150;28;20032;-64
2021/10/26 08:22:21;;;;;;;14.57;10.02;;;12.80;96.40;;;;;;5073556;28;20037;-64
2021/10/26 08:24:54;;;;;;;17.65;9.63;;;12.90;96.40;;;;;;5076404;28;20054;-65
2021/10/26 08:27:20;;;;;;;14.15;9.60;;;13.00;96.40;;;;;;5073251;28;20028;-65
2021/10/26 08:30:06;;;;;;;15.27;9.90;;;13.00;96.40;;;;;;5073278;28;20531;-64
2021/10/26 08:32:48;;;;;;;13.43;9.88;;;13.10;96.30;;;;;;5076500;28;20028;-64
2021/10/26 08:37:42;;;;;;;16.63;10.82;;;13.30;96.20;;;;;;5076020;28;20480;-65
2021/10/26 08:40:09;;;;;;;14.80;10.00;;;13.30;96.10;;;;;;5073105;28;20028;-64
2021/10/26 08:42:35;;;;;;;13.60;9.52;;;13.40;96.00;;;;;;5085562;28;20024;-64
2021/10/26 08:45:02;;;;;;;15.63;9.48;;;13.40;95.90;;;;;;5077309;28;20020;-65
2021/10/26 08:47:28;;;;;;;13.00;9.63;;;13.50;95.90;;;;;;5077328;28;20047;-66
2021/10/26 08:49:53;;;;;;;15.38;9.57;;;13.50;95.90;;;;;;5073047;28;20020;-64
2021/10/26 08:52:20;;;;;;;13.63;9.63;;;13.60;95.80;;;;;;5073394;28;20172;-64
2021/10/26 08:54:50;;;;;;;15.32;10.45;;;13.60;95.80;;;;;;5072650;28;20500;-64
2021/10/26 08:57:15;;;;;;;16.10;10.10;;;13.70;95.70;;;;;;5076055;28;20040;-63
2021/10/26 08:59:41;;;;;;;15.35;9.98;;;13.70;95.70;;;;;;5082186;28;20044;-63
2021/10/26 09:02:06;;;;;;;18.58;11.20;;;13.70;95.70;;;;;;5081463;28;20020;-63
2021/10/26 09:04:38;;;;;;;14.95;10.93;;;13.80;95.70;;;;;;5087511;28;20028;-64
2021/10/26 09:07:14;;;;;;;15.75;10.77;;;13.80;95.70;;;;;;5095184;28;20020;-63
2021/10/26 09:09:39;;;;;;;17.77;10.52;;;13.80;95.60;;;;;;5100486;28;20040;-64
2021/10/26 09:17:52;;;;;;;15.23;10.95;;;13.80;95.60;;;;;;5096979;28;20050;-63
2021/10/26 09:20:26;;;;;;;20.13;11.52;;;13.80;95.60;;;;;;5095591;28;20032;-63
2021/10/26 09:22:55;;;;;;;16.65;10.65;;;13.80;95.60;;;;;;5091839;28;20055;-64
2021/10/26 09:25:32;;;;;;;17.00;11.32;;;13.90;95.70;;;;;;5085806;28;20119;-64
2021/10/26 09:28:15;;;;;;;17.85;10.50;;;13.90;95.70;;;;;;5085720;28;20020;-64
2021/10/26 09:30:42;;;;;;;16.08;10.70;;;13.90;95.70;;;;;;5085908;28;20032;-65
2021/10/26 09:33:08;;;;;;;18.50;10.70;;;14.00;95.70;;;;;;5096017;28;20078;-64
2021/10/26 09:35:35;;;;;;;17.10;10.65;;;14.00;95.70;;;;;;5086280;28;20052;-64
2021/10/26 09:38:01;;;;;;;16.30;11.32;;;14.10;95.70;;;;;;5094456;28;20075;-64
2021/10/26 09:40:43;;;;;;;16.50;10.35;;;14.00;95.70;;;;;;5099713;28;20055;-64
2021/10/26 09:43:10;;;;;;;16.23;10.98;;;14.10;95.70;;;;;;5086082;28;20017;-64
2021/10/26 09:45:37;;;;;;;15.65;10.43;;;14.20;95.70;;;;;;5091590;28;20042;-64
2021/10/26 09:48:14;;;;;;;16.73;12.30;;;14.30;95.70;;;;;;5097710;28;20043;-65
2021/10/26 09:50:42;;;;;;;15.10;10.43;;;14.30;95.60;;;;;;5086060;28;20032;-64
2021/10/26 09:53:10;;;;;;;17.60;12.18;;;14.40;95.60;;;;;;5103127;28;20051;-64
2021/10/26 09:55:37;;;;;;;14.68;9.88;;;14.40;95.50;;;;;;5087654;28;20028;-63
2021/10/26 09:58:08;;;;;;;14.30;10.43;;;14.50;95.50;;;;;;5087720;28;20048;-64
2021/10/26 10:00:38;;;;;;;16.35;10.73;;;14.60;95.50;;;;;;5089164;28;20414;-64
2021/10/26 10:03:24;;;;;;;14.38;9.77;;;14.60;95.40;;;;;;5097017;28;20044;-64
2021/10/26 10:06:01;;;;;;;16.88;9.52;;;14.70;95.40;;;;;;5091647;28;20036;-64
2021/10/26 10:08:35;;;;;;;14.77;9.45;;;14.80;95.40;;;;;;5075412;28;20068;-64
2021/10/26 10:11:19;;;;;;;14.70;9.82;;;14.80;95.20;;;;;;5072565;28;20129;-64
2021/10/26 10:13:47;;;;;;;15.65;9.82;;;14.90;95.20;;;;;;5074547;28;20063;-64
2021/10/26 10:16:17;;;;;;;14.18;8.95;;;14.90;95.10;;;;;;5078257;28;20025;-65
2021/10/26 10:18:44;;;;;;;13.07;8.88;;;15.00;95.10;;;;;;5080988;28;20028;-65
2021/10/26 10:21:13;;;;;;;13.13;8.68;;;15.00;95.00;;;;;;5072288;28;20028;-65
2021/10/26 10:23:42;;;;;;;14.77;8.50;;;15.10;95.00;;;;;;5080351;28;20850;-65
2021/10/26 10:26:09;;;;;;;14.43;9.10;;;15.20;94.90;;;;;;5082663;28;20036;-65
2021/10/26 10:28:42;;;;;;;11.68;7.72;;;15.30;94.80;;;;;;5093143;28;20409;-65
2021/10/26 10:31:07;;;;;;;11.48;7.93;;;15.40;94.70;;;;;;5080893;28;20024;-65
2021/10/26 10:33:33;;;;;;;14.88;7.85;;;15.50;94.60;;;;;;5074452;28;20021;-65
2021/10/26 10:36:00;;;;;;;11.95;7.70;;;15.50;94.40;;;;;;5077288;28;20028;-65
2021/10/26 10:38:32;;;;;;;11.18;7.22;;;15.60;94.30;;;;;;5071938;28;20079;-65
2021/10/26 10:41:23;;;;;;;11.07;7.15;;;15.60;94.30;;;;;;5078671;28;20166;-66
2021/10/26 10:43:53;;;;;;;11.77;7.50;;;15.70;94.20;;;;;;5075772;28;20384;-65
2021/10/26 10:46:40;;;;;;;10.20;7.25;;;15.70;94.10;;;;;;5071468;28;20099;-65
2021/10/26 10:49:24;;;;;;;10.13;6.88;;;15.70;94.10;;;;;;5070406;28;20052;-66
2021/10/26 10:51:59;;;;;;;10.82;6.72;;;15.70;94.10;;;;;;5070921;28;20059;-65
2021/10/26 10:54:41;;;;;;;;;;;15.70;93.90;;;;;;5072282;28;20530;-65
2021/10/26 10:57:33;;;;;;;13.25;7.57;;;15.70;94.10;;;;;;5078958;28;19908;-65
2021/10/26 11:00:21;;;;;;;13.30;7.13;;;15.70;93.80;;;;;;5069917;28;20032;-65
2021/10/26 11:02:51;;;;;;;10.93;6.70;;;15.70;93.80;;;;;;5078933;28;20032;-64
2021/10/26 11:05:36;;;;;;;9.45;6.57;;;15.80;93.70;;;;;;5079089;28;20364;-65
2021/10/26 11:08:04;;;;;;;10.80;7.25;;;15.90;93.60;;;;;;5078904;28;20025;-65
2021/10/26 11:10:48;;;;;;;11.32;7.32;;;15.90;93.50;;;;;;5093726;28;20077;-65
2021/10/26 11:13:25;;;;;;;11.85;7.53;;;16.00;93.40;;;;;;5086142;28;20036;-65
2021/10/26 11:15:53;;;;;;;11.70;7.47;;;16.00;93.30;;;;;;5074621;28;22513;-65
2021/10/26 11:18:47;;;;;;;11.57;7.80;;;16.00;93.30;;;;;;5078514;28;20124;-65
2021/10/26 11:21:22;;;;;;;11.93;7.78;;;16.10;93.20;;;;;;5085098;28;20042;-66
2021/10/26 11:23:50;;;;;;;11.68;7.70;;;16.10;93.20;;;;;;5086386;28;20074;-66
2021/10/26 11:26:18;;;;;;;13.35;8.07;;;16.10;93.10;;;;;;5090267;28;20103;-66
2021/10/26 11:28:55;;;;;;;11.80;8.63;;;16.10;93.00;;;;;;5085402;28;20028;-65
2021/10/26 11:31:25;;;;;;;10.77;7.78;;;16.10;93.00;;;;;;5078220;28;20088;-65
2021/10/26 11:34:12;;;;;;;15.23;7.40;;;16.10;93.00;;;;;;5083835;28;20082;-66
2021/10/26 11:36:38;;;;;;;11.60;6.88;;;16.20;93.00;;;;;;5062945;28;20036;-65
2021/10/26 11:39:07;;;;;;;13.02;7.55;;;16.20;92.90;;;;;;5076919;28;20119;-64
2021/10/26 11:41:36;;;;;;;10.38;7.75;;;16.20;92.90;;;;;;5083493;28;20047;-65
2021/10/26 11:44:10;;;;;;;14.00;7.80;;;16.30;92.90;;;;;;5082956;28;20036;-64
2021/10/26 11:46:38;;;;;;;14.43;8.32;;;16.30;92.80;;;;;;5086724;28;20103;-65
2021/10/26 11:49:18;;;;;;;12.88;8.07;;;16.40;92.80;;;;;;5073887;28;20036;-64
2021/10/26 11:51:46;;;;;;;11.02;8.50;;;16.40;92.80;;;;;;5074486;28;20055;-66
2021/10/26 11:54:23;;;;;;;13.93;9.05;;;16.40;92.80;;;;;;5073881;28;20043;-65
2021/10/26 11:56:51;;;;;;;15.13;8.70;;;16.40;92.70;;;;;;5075180;28;20350;-65
2021/10/26 11:59:24;;;;;;;10.93;8.38;;;16.50;92.70;;;;;;5097149;28;20195;-65
2021/10/26 12:01:57;;;;;;;13.85;8.00;;;16.40;92.70;;;;;;5081418;28;20028;-65
2021/10/26 12:04:29;;;;;;;10.77;7.82;;;16.50;92.60;;;;;;5079442;28;20373;-65
2021/10/26 12:07:05;;;;;;;16.48;9.70;;;16.50;92.60;;;;;;5085241;28;20047;-65
2021/10/26 12:09:34;;;;;;;13.43;9.07;;;16.50;92.50;;;;;;5082124;28;20371;-65
2021/10/26 12:12:05;;;;;;;13.95;8.15;;;16.50;92.50;;;;;;5088728;28;20032;-65
2021/10/26 12:14:41;;;;;;;14.30;9.65;;;16.50;92.50;;;;;;5080580;28;20025;-65
2021/10/26 12:17:24;;;;;;;12.52;8.02;;;16.50;92.50;;;;;;5079452;28;20024;-65
2021/10/26 12:20:03;;;;;;;13.07;8.90;;;16.50;92.50;;;;;;5073976;28;20044;-65
2021/10/26 12:22:33;;;;;;;15.32;8.77;;;16.40;92.40;;;;;;5078075;28;20024;-65
2021/10/26 12:25:21;;;;;;;12.40;8.18;;;16.50;92.50;;;;;;5073189;28;20052;-64
2021/10/26 12:27:56;;;;;;;13.73;8.88;;;16.50;92.50;;;;;;5080890;28;20059;-64
2021/10/26 12:30:23;;;;;;;;;;;16.50;92.50;;;;;;5073507;28;20032;-64
2021/10/26 12:32:54;;;;;;;12.98;7.95;;;16.50;92.60;;;;;;5082379;28;19908;-64
2021/10/26 12:35:41;;;;;;;10.35;7.88;;;16.40;92.50;;;;;;5077261;28;20112;-65
2021/10/26 12:38:29;;;;;;;12.15;8.15;;;16.40;92.40;;;;;;5077177;28;20028;-65
2021/10/26 12:41:04;;;;;;;11.63;8.13;;;16.40;92.40;;;;;;5073470;28;20028;-65
2021/10/26 12:43:30;;;;;;;11.98;7.55;;;16.40;92.30;;;;;;5085604;28;20114;-64
2021/10/26 12:46:17;;;;;;;14.68;8.52;;;16.40;92.30;;;;;;5078004;28;20560;-64
2021/10/26 12:48:43;;;;;;;12.50;8.55;;;16.40;92.40;;;;;;5074780;28;20024;-65
2021/10/26 12:51:09;;;;;;;13.55;9.52;;;16.40;92.40;;;;;;5077665;28;20546;-65
2021/10/26 12:53:39;;;;;;;12.40;8.43;;;16.30;92.30;;;;;;5075142;28;20047;-64
2021/10/26 12:56:25;;;;;;;12.10;8.75;;;16.40;92.40;;;;;;5073200;28;20044;-65